156-й км Убкуа

Карта отелей и гостиниц, располагающихся рядом с аэропортом 156-й км Убкуа :

156-й км Убкуа Ханты-Мансийский автономный округ - Югра 59° 58' 5.52" N, 71° 2' 36.42" E
156-й км Убкуа Ханты-Мансийский автономный округ - Югра 59° 58' 5.52" N, 71° 2' 36.42" E
Код аэродрома ИКАО
HDW0
Код аэродрома RU
ХДВ0
Координаты
N59.96820° E071.04345°
Превышение над уровнем моря
80
Основная полоса
04/22
Курс магнитный
040,2/220,2
Длина основной ВПП
15
Ширина основной ВПП
15
Покрытие основной ВПП
Твёрдое
Освещение ВПП
Нет
Тип: 
Вертодром
Класс аэродрома: 
Принадлежность: 
ГА
Статус: 
Действующий
Сайт: 
E-mail аэродрома: 
Страна: 
Россия
Регион: 
Ханты-Мансийский автономный округ - Югра
Город: 
Дополнительная информация: 

Найти трансфер

С помощью этой формы Вы можете найти трансфер из аэропорта 156-й км Убкуа в город, аэропорт или вокзал:

Карта места

Javascript is required to view this map.

Погода в аэропортах:

Авиационная погода в Гомеле

Регион: 
Погода METAR: 
UMGG 251530Z 11010G13MPS 5000 BR OVC003 04/04 Q1000 R10/290050 TEMPO 3000 RMK QBB110
Время наблюдения
2021-01-25T15:30:00Z
Температура C
4.0
Точка росы
4.0
Направление ветра
110
Скорость ветра (узлы)
19
Метео видимость
3.11
Явления погоды
BR
Условия полета
LIFR
Аэропорт подробнее: 

Авиационная погода в Рощино

Регион: 
Погода METAR: 
USTR 251530Z 18006MPS 5000 -SN FEW012 OVC022 M16/M19 Q1027 R21/450357 R30/450553 TEMPO 0600 +SN VV003
Время наблюдения
2021-01-25T15:30:00Z
Температура C
-16.0
Точка росы
-19.0
Направление ветра
180
Скорость ветра (узлы)
12
Метео видимость
3.11
Явления погоды
-SN
Условия полета
MVFR
Аэропорт подробнее: 

Авиационная погода в Ботсфьорде

Регион: 
Погода METAR: 
ENBS 251550Z 14011KT 5000 -SN SCT012 BKN031 M04/M05 Q1005
Время наблюдения
2021-01-25T15:50:00Z
Температура C
-4.0
Точка росы
-5.0
Направление ветра
140
Скорость ветра (узлы)
11
Метео видимость
3.11
Явления погоды
-SN
Условия полета
MVFR

Авиационная погода в Каяани

Регион: 
Погода METAR: 
EFKI 251550Z AUTO 08006KT 9999 -SHSN OVC014 M01/M01 Q0998
Время наблюдения
2021-01-25T15:50:00Z
Температура C
-1.0
Точка росы
-1.0
Направление ветра
80
Скорость ветра (узлы)
6
Метео видимость
6.21
Явления погоды
-SHSN
Условия полета
MVFR